createdAt,value
2019-04-10T00:01:01.580Z,9.38
2019-04-10T00:03:36.726Z,9.50
2019-04-10T00:06:04.749Z,9.34
2019-04-10T00:08:36.557Z,9.48
2019-04-10T00:11:06.581Z,9.35
2019-04-10T00:13:40.858Z,9.42
2019-04-10T00:16:15.802Z,9.38
2019-04-10T00:18:46.383Z,9.34
2019-04-10T00:21:17.523Z,9.22
2019-04-10T00:23:47.151Z,9.33
2019-04-10T00:26:22.231Z,9.48
2019-04-10T00:28:52.335Z,9.48
2019-04-10T00:31:24.592Z,9.39
2019-04-10T00:33:54.860Z,9.25
2019-04-10T00:36:31.134Z,9.36
2019-04-10T00:39:00.610Z,9.46
2019-04-10T00:41:30.359Z,9.35
2019-04-10T00:44:00.113Z,9.38
2019-04-10T00:46:32.558Z,9.25
2019-04-10T00:49:02.837Z,9.31
2019-04-10T00:51:33.158Z,9.36
2019-04-10T00:54:07.819Z,9.20
2019-04-10T00:56:39.401Z,9.16
2019-04-10T00:59:10.009Z,9.24
2019-04-10T01:01:40.249Z,9.22
2019-04-10T01:04:10.662Z,9.22
2019-04-10T01:06:41.684Z,9.01
2019-04-10T01:09:11.209Z,8.99
2019-04-10T01:11:41.466Z,9.03
2019-04-10T01:14:11.720Z,9.04
2019-04-10T01:16:41.795Z,9.09
2019-04-10T01:19:12.008Z,8.94
2019-04-10T01:21:42.540Z,8.96
2019-04-10T01:24:19.625Z,8.94
2019-04-10T01:26:49.674Z,8.69
2019-04-10T01:29:19.699Z,8.94
2019-04-10T01:31:49.700Z,8.73
2019-04-10T01:34:21.091Z,8.77
2019-04-10T01:36:52.337Z,8.80
2019-04-10T01:39:30.545Z,8.61
2019-04-10T01:42:03.988Z,8.53
2019-04-10T01:44:33.691Z,8.47
2019-04-10T01:47:10.926Z,8.48
2019-04-10T01:49:42.430Z,8.45
2019-04-10T01:52:15.111Z,8.57
2019-04-10T01:54:47.227Z,8.48
2019-04-10T01:57:19.885Z,8.32
2019-04-10T01:59:49.953Z,8.21
2019-04-10T02:02:25.429Z,8.17
2019-04-10T02:04:55.210Z,8.17
2019-04-10T02:07:34.076Z,8.18
2019-04-10T02:10:09.968Z,8.29
2019-04-10T02:12:45.069Z,8.29
2019-04-10T02:15:17.803Z,8.01
2019-04-10T02:17:48.775Z,8.04
2019-04-10T02:20:18.981Z,8.04
2019-04-10T02:22:50.299Z,7.92
2019-04-10T02:25:21.964Z,7.90
2019-04-10T02:27:54.396Z,7.86
2019-04-10T02:30:26.197Z,7.72
2019-04-10T02:33:02.233Z,7.88
2019-04-10T02:35:31.884Z,7.79
2019-04-10T02:38:21.200Z,7.92
2019-04-10T02:40:37.864Z,7.81
2019-04-10T02:43:16.145Z,7.67
2019-04-10T02:45:46.987Z,7.48
2019-04-10T02:48:17.141Z,7.56
2019-04-10T02:50:47.162Z,7.53
2019-04-10T02:53:17.423Z,7.64
2019-04-10T02:55:49.330Z,7.44
2019-04-10T02:58:24.659Z,7.51
2019-04-10T03:00:59.073Z,7.42
2019-04-10T03:03:30.014Z,7.24
2019-04-10T03:06:02.599Z,7.36
2019-04-10T03:08:51.737Z,7.35
2019-04-10T03:11:11.694Z,7.32
2019-04-10T03:13:43.016Z,7.21
2019-04-10T03:16:14.039Z,7.21
2019-04-10T03:18:45.189Z,7.25
2019-04-10T03:21:16.439Z,7.37
2019-04-10T03:23:47.351Z,7.15
2019-04-10T03:26:18.928Z,6.97
2019-04-10T03:28:51.532Z,6.86
2019-04-10T03:31:24.623Z,6.84
2019-04-10T03:34:14.270Z,6.80
2019-04-10T03:36:48.260Z,6.76
2019-04-10T03:39:19.909Z,6.66
2019-04-10T03:41:49.091Z,6.71
2019-04-10T03:44:22.622Z,6.82
2019-04-10T03:46:53.866Z,6.78
2019-04-10T03:49:23.775Z,6.63
2019-04-10T03:51:56.496Z,6.48
2019-04-10T03:54:27.975Z,6.54
2019-04-10T03:56:58.280Z,6.45
2019-04-10T03:59:30.578Z,6.48
2019-04-10T04:02:00.781Z,6.60
2019-04-10T04:04:33.414Z,6.59
2019-04-10T04:07:03.098Z,6.63
2019-04-10T04:09:32.834Z,6.72
2019-04-10T04:12:02.643Z,6.77
2019-04-10T04:14:32.758Z,6.82
2019-04-10T04:17:02.477Z,6.59
2019-04-10T04:19:33.166Z,6.41
2019-04-10T04:22:03.943Z,6.34
2019-04-10T04:24:33.581Z,6.30
2019-04-10T04:27:03.258Z,6.33
2019-04-10T04:29:33.023Z,6.29
2019-04-10T04:32:05.618Z,6.25
2019-04-10T04:34:38.897Z,6.28
2019-04-10T04:37:13.185Z,6.20
2019-04-10T04:39:43.778Z,6.08
2019-04-10T04:42:16.987Z,5.95
2019-04-10T04:44:49.278Z,5.99
2019-04-10T04:47:20.668Z,6.07
2019-04-10T04:49:50.827Z,6.24
2019-04-10T04:52:21.371Z,6.15
2019-04-10T04:54:51.148Z,5.93
2019-04-10T04:57:21.131Z,5.85
2019-04-10T04:59:54.181Z,5.79
2019-04-10T05:02:24.248Z,5.97
2019-04-10T05:04:55.925Z,6.13
2019-04-10T05:07:25.448Z,6.01
2019-04-10T05:09:55.837Z,6.03
2019-04-10T05:12:27.672Z,5.95
2019-04-10T05:15:02.515Z,6.02
2019-04-10T05:17:39.316Z,5.84
2019-04-10T05:20:17.028Z,5.95
2019-04-10T05:22:46.690Z,6.05
2019-04-10T05:25:16.816Z,6.08
2019-04-10T05:27:47.085Z,6.18
2019-04-10T05:30:21.882Z,6.14
2019-04-10T05:32:55.673Z,6.13
2019-04-10T05:35:25.813Z,6.14
2019-04-10T05:38:01.274Z,6.20
2019-04-10T05:40:33.160Z,6.21
2019-04-10T05:43:03.789Z,6.35
2019-04-10T05:45:33.860Z,6.28
2019-04-10T05:48:04.946Z,6.50
2019-04-10T05:50:35.963Z,6.54
2019-04-10T05:53:06.094Z,6.47
2019-04-10T05:55:36.498Z,6.40
2019-04-10T05:58:05.874Z,6.54
2019-04-10T06:00:35.376Z,6.51
2019-04-10T06:03:14.236Z,6.77
2019-04-10T06:05:44.495Z,6.72
2019-04-10T06:08:14.251Z,6.67
2019-04-10T06:10:43.803Z,6.84
2019-04-10T06:13:19.896Z,6.85
2019-04-10T06:15:51.707Z,7.03
2019-04-10T06:18:21.534Z,6.95
2019-04-10T06:20:51.094Z,6.86
2019-04-10T06:23:20.602Z,7.02
2019-04-10T06:25:50.779Z,6.87
2019-04-10T06:28:21.361Z,6.78
2019-04-10T06:30:52.626Z,6.88
2019-04-10T06:33:22.262Z,6.82
2019-04-10T06:35:57.530Z,6.85
2019-04-10T06:38:30.818Z,7.05
2019-04-10T06:41:00.383Z,7.17
2019-04-10T06:43:30.950Z,7.17
2019-04-10T06:46:00.451Z,7.22
2019-04-10T06:48:30.531Z,7.30
2019-04-10T06:51:01.951Z,7.13
2019-04-10T06:53:31.596Z,7.14
2019-04-10T06:56:02.874Z,7.45
2019-04-10T06:58:32.666Z,7.69
2019-04-10T07:01:02.203Z,7.56
2019-04-10T07:03:45.693Z,7.54
2019-04-10T07:06:11.460Z,7.58
2019-04-10T07:08:38.077Z,7.59
2019-04-10T07:11:11.367Z,7.72
2019-04-10T07:13:40.473Z,7.79
2019-04-10T07:16:11.254Z,8.04
2019-04-10T07:18:48.599Z,8.10
2019-04-10T07:21:16.755Z,8.14
2019-04-10T07:23:46.926Z,8.32
2019-04-10T07:26:25.579Z,8.32
2019-04-10T07:28:49.265Z,8.39
2019-04-10T07:31:19.363Z,8.53
2019-04-10T07:33:50.442Z,8.48
2019-04-10T07:36:20.351Z,8.44
2019-04-10T07:38:53.923Z,8.40
2019-04-10T07:41:24.015Z,8.59
2019-04-10T07:43:54.345Z,8.76
2019-04-10T07:46:23.955Z,8.99
2019-04-10T07:48:54.544Z,8.78
2019-04-10T07:51:24.169Z,8.80
2019-04-10T07:53:53.634Z,8.93
2019-04-10T07:56:23.102Z,9.03
2019-04-10T07:58:53.822Z,9.21
2019-04-10T08:01:24.263Z,9.36
2019-04-10T08:03:54.026Z,9.46
2019-04-10T08:06:24.160Z,9.33
2019-04-10T08:08:53.685Z,9.27
2019-04-10T08:11:23.998Z,9.65
2019-04-10T08:13:54.487Z,9.84
2019-04-10T08:16:25.321Z,9.88
2019-04-10T08:18:56.221Z,9.83
2019-04-10T08:21:25.510Z,10.01
2019-04-10T08:24:02.550Z,9.90
2019-04-10T08:26:32.527Z,9.86
2019-04-10T08:29:09.896Z,10.12
2019-04-10T08:31:39.862Z,10.34
2019-04-10T08:34:17.277Z,10.49
2019-04-10T08:36:47.825Z,10.43
2019-04-10T08:39:32.106Z,10.44
2019-04-10T08:41:48.687Z,10.47
2019-04-10T08:44:20.243Z,10.57
2019-04-10T08:46:50.395Z,10.80
2019-04-10T08:49:21.443Z,10.73
2019-04-10T08:51:52.928Z,10.77
2019-04-10T08:54:24.090Z,10.75
2019-04-10T08:56:54.726Z,10.92
2019-04-10T08:59:25.117Z,11.28
2019-04-10T09:01:55.757Z,11.56
2019-04-10T09:04:28.713Z,11.47
2019-04-10T09:07:01.295Z,11.21
2019-04-10T09:09:29.965Z,11.24
2019-04-10T09:11:59.808Z,11.72
2019-04-10T09:14:29.701Z,12.12
2019-04-10T09:16:59.211Z,11.77
2019-04-10T09:19:38.172Z,11.68
2019-04-10T09:22:10.556Z,11.63
2019-04-10T09:24:40.124Z,11.70
2019-04-10T09:27:09.617Z,11.76
2019-04-10T09:29:40.363Z,11.96
2019-04-10T09:32:11.108Z,12.02
2019-04-10T09:34:42.159Z,11.85
2019-04-10T09:37:11.651Z,11.90
2019-04-10T09:39:43.413Z,12.00
2019-04-10T09:42:13.016Z,12.11
2019-04-10T09:44:43.041Z,11.94
2019-04-10T09:47:16.395Z,11.70
2019-04-10T09:49:46.998Z,11.74
2019-04-10T09:52:18.714Z,11.62
2019-04-10T09:54:51.052Z,11.74
2019-04-10T09:57:20.389Z,11.60
2019-04-10T09:59:52.442Z,11.57
2019-04-10T10:02:23.220Z,11.88
2019-04-10T10:04:53.498Z,11.72
2019-04-10T10:07:46.979Z,11.46
2019-04-10T10:10:17.218Z,11.54
2019-04-10T10:12:46.943Z,11.53
2019-04-10T10:15:17.487Z,11.65
2019-04-10T10:17:48.701Z,12.19
2019-04-10T10:20:21.797Z,12.52
2019-04-10T10:22:57.783Z,12.77
2019-04-10T10:25:27.470Z,13.21
2019-04-10T10:27:58.492Z,13.16
2019-04-10T10:30:29.907Z,13.42
2019-04-10T10:33:03.658Z,13.94
2019-04-10T10:35:41.282Z,14.00
2019-04-10T10:38:11.264Z,14.10
2019-04-10T10:40:41.637Z,14.16
2019-04-10T10:43:11.977Z,13.50
2019-04-10T10:45:43.005Z,13.54
2019-04-10T10:48:12.152Z,13.73
2019-04-10T10:50:42.173Z,13.77
2019-04-10T10:53:12.932Z,13.91
2019-04-10T10:55:42.439Z,14.20
2019-04-10T10:58:13.492Z,14.17
2019-04-10T11:00:44.281Z,14.62
2019-04-10T11:03:16.189Z,14.92
2019-04-10T11:05:46.482Z,14.61
2019-04-10T11:08:16.015Z,14.10
2019-04-10T11:10:49.119Z,14.33
2019-04-10T11:13:16.701Z,14.36
2019-04-10T11:15:46.122Z,14.80
2019-04-10T11:18:16.014Z,14.78
2019-04-10T11:20:45.235Z,14.38
2019-04-10T11:23:14.573Z,15.24
2019-04-10T11:25:46.387Z,15.77
2019-04-10T11:28:16.279Z,15.94
2019-04-10T11:30:47.278Z,15.96
2019-04-10T11:33:17.625Z,16.09
2019-04-10T11:35:51.397Z,15.56
2019-04-10T11:38:25.656Z,15.60
2019-04-10T11:40:59.940Z,16.19
2019-04-10T11:43:30.217Z,16.71
2019-04-10T11:46:02.587Z,16.26
2019-04-10T11:48:32.230Z,15.62
2019-04-10T11:51:06.532Z,15.83
2019-04-10T11:53:41.756Z,15.61
2019-04-10T11:56:13.044Z,15.83
2019-04-10T12:01:14.033Z,16.04
2019-04-10T12:03:50.430Z,16.16
2019-04-10T12:06:20.761Z,16.03
2019-04-10T12:09:13.655Z,16.24
2019-04-10T12:11:23.012Z,16.64
2019-04-10T12:13:52.224Z,16.12
2019-04-10T12:16:23.074Z,17.13
2019-04-10T12:18:55.845Z,16.63
2019-04-10T12:21:27.578Z,17.23
2019-04-10T12:23:58.873Z,16.88
2019-04-10T12:26:28.884Z,16.81
2019-04-10T12:29:00.894Z,17.44
2019-04-10T12:31:30.891Z,16.79
2019-04-10T12:34:01.853Z,16.56
2019-04-10T12:36:34.355Z,16.76
2019-04-10T12:39:07.902Z,16.50
2019-04-10T12:41:39.429Z,15.88
2019-04-10T12:44:13.613Z,16.50
2019-04-10T12:46:46.408Z,16.58
2019-04-10T12:49:15.719Z,16.80
2019-04-10T12:51:45.823Z,16.00
2019-04-10T12:54:17.586Z,16.61
2019-04-10T12:56:48.745Z,15.96
2019-04-10T12:59:25.695Z,16.84
2019-04-10T13:01:57.368Z,16.63
2019-04-10T13:04:30.260Z,17.40
2019-04-10T13:07:00.880Z,16.95
2019-04-10T13:09:31.882Z,17.22
2019-04-10T13:12:04.891Z,17.03
2019-04-10T13:14:34.883Z,16.35
2019-04-10T13:17:04.745Z,16.36
2019-04-10T13:19:39.600Z,16.87
2019-04-10T13:22:11.670Z,16.84
2019-04-10T13:24:43.784Z,16.97
2019-04-10T13:27:19.006Z,17.22
2019-04-10T13:29:48.837Z,16.98
2019-04-10T13:32:18.299Z,17.08
2019-04-10T13:34:49.098Z,16.83
2019-04-10T13:37:22.607Z,17.87
2019-04-10T13:39:52.819Z,18.55
2019-04-10T13:42:34.344Z,18.20
2019-04-10T13:45:04.631Z,18.49
2019-04-10T13:47:36.650Z,17.92
2019-04-10T13:50:08.601Z,18.32
2019-04-10T13:52:40.562Z,18.39
2019-04-10T13:55:13.122Z,18.21
2019-04-10T13:57:46.542Z,17.70
2019-04-10T14:00:28.240Z,17.94
2019-04-10T14:02:58.615Z,17.43
2019-04-10T14:05:31.924Z,17.71
2019-04-10T14:08:02.023Z,18.14
2019-04-10T14:10:33.106Z,18.76
2019-04-10T14:13:03.223Z,18.67
2019-04-10T14:15:35.906Z,18.36
2019-04-10T14:18:06.553Z,18.86
2019-04-10T14:20:36.130Z,19.61
2019-04-10T14:23:23.484Z,19.24
2019-04-10T14:25:58.836Z,18.63
2019-04-10T14:28:29.147Z,19.11
2019-04-10T14:31:05.783Z,18.29
2019-04-10T14:33:35.820Z,18.44
2019-04-10T14:36:07.578Z,18.21
2019-04-10T14:38:41.174Z,17.68
2019-04-10T14:41:20.027Z,18.45
2019-04-10T14:43:50.133Z,18.95
2019-04-10T14:46:20.675Z,18.48
2019-04-10T14:48:52.291Z,18.95
2019-04-10T14:51:24.425Z,18.60
2019-04-10T14:53:55.315Z,17.95
2019-04-10T14:56:28.839Z,18.31
2019-04-10T14:58:59.600Z,18.71
2019-04-10T15:01:32.026Z,18.25
2019-04-10T15:04:03.014Z,17.39
2019-04-10T15:06:33.382Z,18.33
2019-04-10T15:09:04.143Z,18.17
2019-04-10T15:11:33.577Z,18.14
2019-04-10T15:14:05.511Z,18.67
2019-04-10T15:16:36.900Z,18.03
2019-04-10T15:19:06.583Z,18.91
2019-04-10T15:21:36.661Z,19.10
2019-04-10T15:24:07.343Z,18.65
2019-04-10T15:26:40.751Z,19.18
2019-04-10T15:29:12.219Z,18.12
2019-04-10T15:31:41.845Z,18.99
2019-04-10T15:34:11.951Z,17.89
2019-04-10T15:36:46.436Z,17.77
2019-04-10T15:39:16.890Z,17.99
2019-04-10T15:41:46.104Z,18.26
2019-04-10T15:44:16.646Z,19.05
2019-04-10T15:46:47.356Z,19.59
2019-04-10T15:49:17.786Z,19.65
2019-04-10T15:51:49.756Z,20.14
2019-04-10T15:54:24.144Z,19.32
2019-04-10T15:56:54.177Z,18.92
2019-04-10T15:59:25.371Z,18.14
2019-04-10T16:01:55.287Z,18.64
2019-04-10T16:04:25.525Z,18.70
2019-04-10T16:06:56.017Z,19.51
2019-04-10T16:09:28.088Z,19.84
2019-04-10T16:12:18.604Z,20.66
2019-04-10T16:14:55.062Z,19.79
2019-04-10T16:17:41.932Z,20.37
2019-04-10T16:20:33.616Z,20.80
2019-04-10T16:23:28.900Z,20.00
2019-04-10T16:25:58.628Z,20.42
2019-04-10T16:28:29.421Z,20.86
2019-04-10T16:31:01.328Z,20.41
2019-04-10T16:33:32.031Z,20.78
2019-04-10T16:36:05.250Z,20.56
2019-04-10T16:38:36.375Z,20.52
2019-04-10T16:41:05.800Z,19.92
2019-04-10T16:43:36.264Z,19.66
2019-04-10T16:46:07.024Z,19.55
2019-04-10T16:48:38.364Z,18.81
2019-04-10T16:51:07.996Z,20.24
2019-04-10T16:53:41.252Z,20.24
2019-04-10T16:56:11.901Z,21.14
2019-04-10T16:58:42.489Z,21.27
2019-04-10T17:01:18.188Z,21.79
2019-04-10T17:03:47.748Z,21.49
2019-04-10T17:06:30.340Z,20.17
2019-04-10T17:09:00.665Z,19.86
2019-04-10T17:11:33.414Z,20.20
2019-04-10T17:14:04.819Z,19.82
2019-04-10T17:16:35.749Z,20.14
2019-04-10T17:19:09.900Z,18.94
2019-04-10T17:21:42.600Z,18.66
2019-04-10T17:24:13.284Z,18.71
2019-04-10T17:26:43.428Z,17.68
2019-04-10T17:29:16.702Z,17.02
2019-04-10T17:31:47.250Z,16.81
2019-04-10T17:34:16.989Z,16.93
2019-04-10T17:36:47.339Z,16.48
2019-04-10T17:39:19.745Z,16.29
2019-04-10T17:41:56.073Z,15.66
2019-04-10T17:44:26.484Z,15.73
2019-04-10T17:46:55.763Z,15.10
2019-04-10T17:49:25.638Z,14.52
2019-04-10T17:51:54.861Z,14.46
2019-04-10T17:54:29.851Z,14.17
2019-04-10T17:57:00.338Z,14.44
2019-04-10T17:59:30.598Z,14.59
2019-04-10T18:02:02.200Z,14.33
2019-04-10T18:04:33.898Z,13.97
2019-04-10T18:07:05.890Z,13.85
2019-04-10T18:09:38.842Z,14.07
2019-04-10T18:12:10.260Z,14.10
2019-04-10T18:14:42.454Z,13.78
2019-04-10T18:17:14.471Z,13.40
2019-04-10T18:19:46.189Z,13.10
2019-04-10T18:22:15.438Z,12.89
2019-04-10T18:24:45.421Z,13.15
2019-04-10T18:27:14.935Z,13.17
2019-04-10T18:29:45.526Z,13.17
2019-04-10T18:32:15.822Z,12.99
2019-04-10T18:34:46.474Z,12.40
2019-04-10T18:37:19.143Z,12.39
2019-04-10T18:39:57.046Z,12.47
2019-04-10T18:42:28.783Z,12.63
2019-04-10T18:44:59.439Z,12.68
2019-04-10T18:47:32.327Z,12.56
2019-04-10T18:50:22.377Z,12.56
2019-04-10T18:52:51.982Z,12.56
2019-04-10T18:55:23.243Z,12.64
2019-04-10T18:57:54.839Z,12.54
2019-04-10T19:00:43.455Z,12.50
2019-04-10T19:03:29.640Z,12.26
2019-04-10T19:06:02.597Z,12.29
2019-04-10T19:09:04.981Z,12.12
2019-04-10T19:11:26.796Z,12.06
2019-04-10T19:13:55.442Z,12.13
2019-04-10T19:16:27.649Z,11.89
2019-04-10T19:18:57.237Z,11.97
2019-04-10T19:21:27.995Z,11.83
2019-04-10T19:24:00.110Z,11.50
2019-04-10T19:26:33.917Z,11.62
2019-04-10T19:29:07.515Z,11.23
2019-04-10T19:31:38.781Z,11.23
2019-04-10T19:34:09.707Z,11.03
2019-04-10T19:36:42.134Z,11.03
2019-04-10T19:39:12.595Z,10.82
2019-04-10T19:41:46.992Z,10.69
2019-04-10T19:44:21.140Z,10.80
2019-04-10T19:46:50.989Z,10.69
2019-04-10T19:49:20.377Z,10.48
2019-04-10T19:51:51.831Z,10.62
2019-04-10T19:54:41.256Z,10.27
2019-04-10T19:57:13.476Z,10.31
2019-04-10T19:59:44.078Z,10.36
2019-04-10T20:02:15.052Z,10.01
2019-04-10T20:04:45.715Z,10.12
2019-04-10T20:07:16.574Z,10.01
2019-04-10T20:09:46.467Z,9.95
2019-04-10T20:12:18.212Z,9.87
2019-04-10T20:14:51.026Z,9.51
2019-04-10T20:17:24.057Z,9.70
2019-04-10T20:19:57.170Z,9.28
2019-04-10T20:22:30.706Z,9.47
2019-04-10T20:25:02.218Z,9.51
2019-04-10T20:27:32.041Z,9.56
2019-04-10T20:30:01.945Z,9.45
2019-04-10T20:32:32.324Z,9.53
2019-04-10T20:35:02.363Z,9.37
2019-04-10T20:37:39.960Z,9.46
2019-04-10T20:40:11.924Z,9.16
2019-04-10T20:42:43.203Z,8.81
2019-04-10T20:45:14.220Z,9.27
2019-04-10T20:47:44.650Z,9.24
2019-04-10T20:50:15.418Z,9.50
2019-04-10T20:52:47.251Z,9.29
2019-04-10T20:55:17.566Z,9.43
2019-04-10T20:57:49.989Z,9.38
2019-04-10T21:00:30.121Z,9.25
2019-04-10T21:03:01.469Z,9.29
2019-04-10T21:05:33.752Z,9.22
2019-04-10T21:08:06.569Z,9.12
2019-04-10T21:10:38.734Z,8.84
2019-04-10T21:13:08.693Z,8.87
2019-04-10T21:15:42.216Z,8.66
2019-04-10T21:18:34.269Z,8.62
2019-04-10T21:21:03.954Z,8.58
2019-04-10T21:23:34.288Z,8.68
2019-04-10T21:26:06.058Z,8.43
2019-04-10T21:28:48.334Z,8.49
2019-04-10T21:31:43.307Z,8.17
2019-04-10T21:34:30.439Z,8.47
2019-04-10T21:37:08.408Z,8.34
2019-04-10T21:39:38.262Z,8.12
2019-04-10T21:42:18.607Z,8.32
2019-04-10T21:44:45.017Z,8.08
2019-04-10T21:47:14.441Z,7.99
2019-04-10T21:49:46.276Z,7.82
2019-04-10T21:52:16.635Z,7.95
2019-04-10T21:54:51.059Z,7.75
2019-04-10T21:57:18.108Z,7.86
2019-04-10T21:59:47.602Z,8.10
2019-04-10T22:02:19.886Z,7.81
2019-04-10T22:04:49.817Z,7.87
2019-04-10T22:07:48.688Z,7.69
2019-04-10T22:10:48.400Z,7.72
2019-04-10T22:13:20.504Z,7.58
2019-04-10T22:15:53.641Z,7.91
2019-04-10T22:18:23.358Z,7.84
2019-04-10T22:20:54.585Z,7.62
2019-04-10T22:23:27.232Z,7.61
2019-04-10T22:25:56.804Z,7.48
2019-04-10T22:28:26.432Z,7.26
2019-04-10T22:31:18.133Z,7.33
2019-04-10T22:33:47.518Z,7.12
2019-04-10T22:36:24.845Z,7.25
2019-04-10T22:39:04.784Z,7.18
2019-04-10T22:41:38.527Z,7.30
2019-04-10T22:44:08.244Z,6.85
2019-04-10T22:46:42.495Z,6.88
2019-04-10T22:49:12.429Z,6.87
2019-04-10T22:51:42.188Z,7.15
2019-04-10T22:54:13.068Z,7.08
2019-04-10T22:56:42.347Z,7.00
2019-04-10T22:59:12.119Z,6.89
2019-04-10T23:01:43.249Z,6.77
2019-04-10T23:04:14.801Z,6.84
2019-04-10T23:06:45.662Z,6.71
2019-04-10T23:09:15.928Z,6.62
2019-04-10T23:11:46.877Z,6.55
2019-04-10T23:14:16.923Z,6.44
2019-04-10T23:16:48.417Z,6.46
2019-04-10T23:19:18.334Z,6.52
2019-04-10T23:21:49.135Z,6.53
2019-04-10T23:24:21.274Z,6.26
2019-04-10T23:26:51.538Z,6.14
2019-04-10T23:29:22.269Z,6.20
2019-04-10T23:31:52.066Z,6.27
2019-04-10T23:34:23.528Z,6.25
2019-04-10T23:36:56.142Z,6.16
2019-04-10T23:39:26.366Z,6.25
2019-04-10T23:41:57.022Z,6.10
2019-04-10T23:44:27.012Z,6.05
2019-04-10T23:46:56.273Z,6.13
2019-04-10T23:49:28.271Z,5.80
2019-04-10T23:51:59.133Z,6.09
2019-04-10T23:54:29.543Z,5.89
2019-04-10T23:57:01.044Z,5.65
2019-04-10T23:59:32.984Z,5.79
